Time;durP1;ratioP1;P1;durP2;ratioP2;P2;SDS_P1;SDS_P2;PMS_P1;PMS_P2;Temp;Humidity;BMP_temperature;BMP_pressure;BME280_temperature;BME280_humidity;BME280_pressure;Samples;Min_cycle;Max_cycle;Signal;HPM_P1;HPM_P2
2022/09/11 00:00:44;;;;;;;25.27;15.18;;;;;;;-145.01;100.00;64805.59;5057928;28;20032;-55
2022/09/11 00:03:09;;;;;;;29.17;16.52;;;;;;;-145.01;100.00;64805.59;5057638;28;20075;-55
2022/09/11 00:05:38;;;;;;;28.85;14.88;;;;;;;-145.01;100.00;64805.59;5055499;28;20087;-55
2022/09/11 00:08:04;;;;;;;27.23;16.20;;;;;;;-145.01;100.00;64805.59;5060901;28;20101;-55
2022/09/11 00:10:33;;;;;;;26.33;17.08;;;;;;;-145.01;100.00;64805.59;5056613;28;20049;-54
2022/09/11 00:12:58;;;;;;;26.02;15.55;;;;;;;-145.01;100.00;64805.59;5061284;28;20044;-54
2022/09/11 00:15:24;;;;;;;26.50;17.67;;;;;;;-145.01;100.00;64805.59;5061280;28;20039;-54
2022/09/11 00:17:50;;;;;;;26.88;16.17;;;;;;;-145.01;100.00;64805.59;5062530;28;20021;-55
2022/09/11 00:20:15;;;;;;;25.95;17.08;;;;;;;-145.01;100.00;64805.59;5054196;28;20076;-54
2022/09/11 00:22:41;;;;;;;31.05;18.30;;;;;;;-145.01;100.00;64805.59;5060069;28;20025;-54
2022/09/11 00:25:07;;;;;;;28.92;17.15;;;;;;;-145.01;100.00;64805.59;5060464;28;20059;-54
2022/09/11 00:27:32;;;;;;;26.17;16.90;;;;;;;-145.01;100.00;64805.59;5059538;28;20039;-54
2022/09/11 00:29:59;;;;;;;26.13;16.75;;;;;;;-145.01;100.00;64805.59;5060614;28;20033;-55
2022/09/11 00:32:24;;;;;;;29.75;17.95;;;;;;;-145.01;100.00;64805.59;5053634;28;20036;-54
2022/09/11 00:34:49;;;;;;;26.75;16.70;;;;;;;-145.01;100.00;64805.59;5057981;28;20025;-55
2022/09/11 00:37:15;;;;;;;24.88;15.55;;;;;;;-145.01;100.00;64805.59;5054215;28;20036;-55
2022/09/11 00:39:41;;;;;;;24.75;16.42;;;;;;;-145.01;100.00;64805.59;5053569;28;20029;-55
2022/09/11 00:42:08;;;;;;;25.10;17.27;;;;;;;-145.01;100.00;64805.59;5061944;28;20118;-54
2022/09/11 00:44:34;;;;;;;39.92;17.38;;;;;;;-145.01;100.00;64805.59;5062346;28;20647;-55
2022/09/11 00:47:00;;;;;;;27.52;17.38;;;;;;;-145.01;100.00;64805.59;5058722;28;20028;-53
2022/09/11 00:49:33;;;;;;;27.52;17.55;;;;;;;-145.01;100.00;64805.59;5067036;28;20056;-54
2022/09/11 00:52:02;;;;;;;28.25;17.02;;;;;;;-145.01;100.00;64805.59;5053712;28;20063;-54
2022/09/11 00:54:31;;;;;;;24.15;15.77;;;;;;;-145.01;100.00;64805.59;5062013;28;20029;-55
2022/09/11 00:56:57;;;;;;;23.95;17.02;;;;;;;-145.01;100.00;64805.59;5044416;28;20024;-55
2022/09/11 00:59:25;;;;;;;30.23;17.17;;;;;;;-145.01;100.00;64805.59;5060266;28;20024;-54
2022/09/11 01:01:51;;;;;;;27.02;16.63;;;;;;;-145.01;100.00;64805.59;5060699;28;20025;-54
2022/09/11 01:04:16;;;;;;;27.52;18.38;;;;;;;-145.01;100.00;64805.59;5054295;28;20036;-53
2022/09/11 01:06:42;;;;;;;25.45;17.23;;;;;;;-145.01;100.00;64805.59;5057406;28;20495;-54
2022/09/11 01:09:08;;;;;;;26.70;17.45;;;;;;;-145.01;100.00;64805.59;5064521;28;20040;-54
2022/09/11 01:11:44;;;;;;;26.08;15.85;;;;;;;-145.01;100.00;64805.59;5062622;28;20074;-54
2022/09/11 01:14:35;;;;;;;27.60;16.27;;;;;;;-145.01;100.00;64805.59;5061186;28;20435;-55
2022/09/11 01:17:09;;;;;;;33.05;19.00;;;;;;;-145.01;100.00;64805.59;5056196;28;20116;-55
2022/09/11 01:19:39;;;;;;;33.15;18.20;;;;;;;-145.01;100.00;64805.59;5055645;28;20041;-55
2022/09/11 01:22:20;;;;;;;33.17;19.00;;;;;;;-145.01;100.00;64805.59;5058487;28;20025;-54
2022/09/11 01:25:22;;;;;;;33.65;19.73;;;;;;;-145.01;100.00;64805.59;5055791;28;20033;-54
2022/09/11 01:27:49;;;;;;;29.30;18.95;;;;;;;-145.01;100.00;64805.59;5050378;28;20036;-54
2022/09/11 01:30:22;;;;;;;30.45;17.85;;;;;;;-145.01;100.00;64805.59;5055890;28;20143;-54
2022/09/11 01:32:58;;;;;;;28.67;18.88;;;;;;;-145.01;100.00;64805.59;5059068;28;20534;-53
2022/09/11 01:35:55;;;;;;;34.50;19.35;;;;;;;-145.01;100.00;64805.59;5064206;28;20036;-55
2022/09/11 01:38:26;;;;;;;30.88;20.65;;;;;;;-145.01;100.00;64805.59;5043026;28;21425;-54
2022/09/11 01:41:00;;;;;;;34.05;20.95;;;;;;;-145.01;100.00;64805.59;5061802;28;20133;-54
2022/09/11 01:43:28;;;;;;;37.88;20.20;;;;;;;-145.01;100.00;64805.59;5059394;28;20482;-54
2022/09/11 01:45:53;;;;;;;32.92;21.15;;;;;;;-145.01;100.00;64805.59;5089167;28;20063;-54
2022/09/11 01:48:26;;;;;;;36.33;22.25;;;;;;;-145.01;100.00;64805.59;5038869;28;20387;-53
2022/09/11 01:50:52;;;;;;;37.30;20.80;;;;;;;-145.01;100.00;64805.59;5046318;28;20480;-52
2022/09/11 01:53:20;;;;;;;38.17;21.58;;;;;;;-145.01;100.00;64805.59;5073510;28;20074;-54
2022/09/11 01:56:09;;;;;;;36.90;20.98;;;;;;;-145.01;100.00;64805.59;5068599;28;20064;-55
2022/09/11 01:58:35;;;;;;;33.72;20.17;;;;;;;-145.01;100.00;64805.59;5061855;28;20021;-54
2022/09/11 02:01:24;;;;;;;32.70;20.42;;;;;;;-145.01;100.00;64805.59;5076873;28;20564;-54
2022/09/11 02:03:52;;;;;;;34.17;20.85;;;;;;;-145.01;100.00;64805.59;5060421;28;20041;-55
2022/09/11 02:06:21;;;;;;;32.83;20.63;;;;;;;-145.01;100.00;64805.59;5061569;28;20052;-55
2022/09/11 02:08:49;;;;;;;33.03;21.35;;;;;;;-145.01;100.00;64805.59;5061566;28;20029;-54
2022/09/11 02:11:15;;;;;;;31.75;19.85;;;;;;;-145.01;100.00;64805.59;5069185;28;20040;-54
2022/09/11 02:13:57;;;;;;;36.60;19.88;;;;;;;-145.01;100.00;64805.59;5061084;28;20049;-54
2022/09/11 02:16:48;;;;;;;31.77;17.05;;;;;;;-145.01;100.00;64805.59;5048612;28;20028;-54
2022/09/11 02:19:16;;;;;;;36.35;18.02;;;;;;;-145.01;100.00;64805.59;5059121;28;20056;-55
2022/09/11 02:21:41;;;;;;;27.10;17.17;;;;;;;-145.01;100.00;64805.59;5058981;28;20029;-53
2022/09/11 02:24:08;;;;;;;29.95;17.95;;;;;;;-145.01;100.00;64805.59;5062909;28;20033;-52
2022/09/11 02:26:35;;;;;;;25.98;17.27;;;;;;;-145.01;100.00;64805.59;5067221;28;20024;-53
2022/09/11 02:29:00;;;;;;;29.52;17.50;;;;;;;-145.01;100.00;64805.59;5043704;28;20028;-54
2022/09/11 02:31:26;;;;;;;26.60;17.55;;;;;;;-145.01;100.00;64805.59;5065713;28;20375;-54
2022/09/11 02:33:52;;;;;;;30.02;18.92;;;;;;;-145.01;100.00;64805.59;5060588;28;20490;-54
2022/09/11 02:36:45;;;;;;;28.67;17.13;;;;;;;-145.01;100.00;64805.59;5058240;28;20021;-54
2022/09/11 02:39:48;;;;;;;28.02;15.85;;;;;;;-145.01;100.00;64805.59;5060190;28;20119;-54
2022/09/11 02:42:55;;;;;;;27.95;16.98;;;;;;;-145.01;100.00;64805.59;5058367;28;20037;-55
2022/09/11 02:45:33;;;;;;;26.02;16.98;;;;;;;-145.01;100.00;64805.59;5044939;28;20036;-55
2022/09/11 02:48:20;;;;;;;23.67;16.50;;;;;;;-145.01;100.00;64805.59;5086145;28;20530;-54
2022/09/11 02:51:14;;;;;;;27.48;16.75;;;;;;;-145.01;100.00;64805.59;5063697;28;20036;-55
2022/09/11 02:53:56;;;;;;;22.35;15.70;;;;;;;-145.01;100.00;64805.59;5054500;28;20399;-54
2022/09/11 02:57:01;;;;;;;26.83;15.50;;;;;;;-145.01;100.00;64805.59;5061446;28;20051;-53
2022/09/11 02:59:30;;;;;;;26.83;15.82;;;;;;;-145.01;100.00;64805.59;5062527;28;20024;-54
2022/09/11 03:02:00;;;;;;;25.60;15.45;;;;;;;-145.01;100.00;64805.59;5083592;28;20325;-54
2022/09/11 03:04:26;;;;;;;27.30;16.77;;;;;;;-145.01;100.00;64805.59;5057711;28;20048;-54
2022/09/11 03:06:52;;;;;;;27.67;15.68;;;;;;;-145.01;100.00;64805.59;5057879;28;20043;-54
2022/09/11 03:09:17;;;;;;;22.50;15.25;;;;;;;-145.01;100.00;64805.59;5067698;28;20433;-54
2022/09/11 03:11:43;;;;;;;31.20;16.92;;;;;;;-145.01;100.00;64805.59;5064038;28;20078;-55
2022/09/11 03:14:09;;;;;;;27.35;15.68;;;;;;;-145.01;100.00;64805.59;5057468;28;20059;-55
2022/09/11 03:16:35;;;;;;;22.40;15.18;;;;;;;-145.01;100.00;64805.59;5062504;28;20021;-55
2022/09/11 03:19:01;;;;;;;26.52;16.13;;;;;;;-145.01;100.00;64805.59;5059944;28;20371;-54
2022/09/11 03:21:27;;;;;;;25.48;15.32;;;;;;;-145.01;100.00;64805.59;5059152;28;20111;-54
2022/09/11 03:23:52;;;;;;;21.83;14.85;;;;;;;-145.01;100.00;64805.59;5065556;28;20035;-53
2022/09/11 03:26:18;;;;;;;21.27;13.85;;;;;;;-145.01;100.00;64805.59;5061527;28;20033;-54
2022/09/11 03:28:44;;;;;;;25.52;15.75;;;;;;;-145.01;100.00;64805.59;5061483;28;20039;-55
2022/09/11 03:31:10;;;;;;;26.65;15.48;;;;;;;-145.01;100.00;64805.59;5062512;28;20332;-54
2022/09/11 03:33:36;;;;;;;23.70;15.70;;;;;;;-145.01;100.00;64805.59;5064886;28;20032;-54
2022/09/11 03:36:02;;;;;;;21.83;13.45;;;;;;;-145.01;100.00;64805.59;5053764;28;20021;-54
2022/09/11 03:38:27;;;;;;;23.25;15.77;;;;;;;-145.01;100.00;64805.59;5054424;28;20536;-55
2022/09/11 03:40:53;;;;;;;23.73;15.90;;;;;;;-145.01;100.00;64805.59;5059205;28;20025;-54
2022/09/11 03:43:20;;;;;;;24.15;16.08;;;;;;;-145.01;100.00;64805.59;5069225;28;20463;-55
2022/09/11 03:45:48;;;;;;;27.58;17.05;;;;;;;-145.01;100.00;64805.59;5057174;28;20059;-54
2022/09/11 03:48:14;;;;;;;29.05;18.70;;;;;;;-145.01;100.00;64805.59;5089777;28;20070;-54
2022/09/11 03:50:40;;;;;;;32.90;19.45;;;;;;;-145.01;100.00;64805.59;5072564;28;20024;-54
2022/09/11 03:53:05;;;;;;;31.35;20.25;;;;;;;-145.01;100.00;64805.59;5059953;28;20032;-55
2022/09/11 03:55:30;;;;;;;34.88;21.35;;;;;;;-145.01;100.00;64805.59;5065416;28;20379;-55
2022/09/11 03:57:57;;;;;;;34.30;19.63;;;;;;;-145.01;100.00;64805.59;5061072;28;20027;-55
2022/09/11 04:00:23;;;;;;;38.63;21.33;;;;;;;-145.01;100.00;64805.59;5056691;28;20498;-55
2022/09/11 04:02:49;;;;;;;32.60;19.55;;;;;;;-145.01;100.00;64805.59;5055708;28;20039;-53
2022/09/11 04:05:14;;;;;;;35.60;20.90;;;;;;;-145.01;100.00;64805.59;5060803;28;20024;-54
2022/09/11 04:07:40;;;;;;;32.30;19.52;;;;;;;-145.01;100.00;64805.59;5062714;28;20025;-55
2022/09/11 04:10:06;;;;;;;35.28;18.88;;;;;;;-145.01;100.00;64805.59;5055743;28;20098;-54
2022/09/11 04:12:32;;;;;;;31.90;19.63;;;;;;;-145.01;100.00;64805.59;5061173;28;20056;-54
2022/09/11 04:14:57;;;;;;;31.83;19.40;;;;;;;-145.01;100.00;64805.59;5055348;28;20028;-54
2022/09/11 04:17:23;;;;;;;30.73;19.95;;;;;;;-145.01;100.00;64805.59;5066485;28;20387;-55
2022/09/11 04:19:48;;;;;;;32.33;20.20;;;;;;;-145.01;100.00;64805.59;5060288;28;20024;-55
2022/09/11 04:22:14;;;;;;;30.48;19.92;;;;;;;-145.01;100.00;64805.59;5063167;28;20066;-54
2022/09/11 04:24:39;;;;;;;37.17;20.35;;;;;;;-145.01;100.00;64805.59;5060990;28;20024;-54
2022/09/11 04:27:05;;;;;;;39.50;21.70;;;;;;;-145.01;100.00;64805.59;5055204;28;20095;-54
2022/09/11 04:29:31;;;;;;;30.02;19.10;;;;;;;-145.01;100.00;64805.59;5067171;28;20025;-54
2022/09/11 04:31:57;;;;;;;32.88;19.83;;;;;;;-145.01;100.00;64805.59;5065822;28;20094;-54
2022/09/11 04:34:22;;;;;;;33.70;19.10;;;;;;;-145.01;100.00;64805.59;5056347;28;20029;-55
2022/09/11 04:36:48;;;;;;;32.55;19.75;;;;;;;-145.01;100.00;64805.59;5061216;28;20028;-54
2022/09/11 04:39:14;;;;;;;28.58;19.08;;;;;;;-145.01;100.00;64805.59;5054726;28;20032;-53
2022/09/11 04:41:39;;;;;;;38.25;20.25;;;;;;;-145.01;100.00;64805.59;5063396;28;20644;-54
2022/09/11 04:44:05;;;;;;;34.20;19.67;;;;;;;-145.01;100.00;64805.59;5065396;28;20040;-54
2022/09/11 04:46:30;;;;;;;34.15;19.17;;;;;;;-145.01;100.00;64805.59;5058310;28;20475;-54
2022/09/11 04:48:58;;;;;;;34.05;21.13;;;;;;;-145.01;100.00;64805.59;5060943;28;20552;-57
2022/09/11 04:51:30;;;;;;;33.65;20.98;;;;;;;-145.01;100.00;64805.59;5059733;28;20029;-53
2022/09/11 04:53:56;;;;;;;33.28;20.77;;;;;;;-145.01;100.00;64805.59;5067825;28;20028;-54
2022/09/11 04:56:23;;;;;;;31.17;19.50;;;;;;;-145.01;100.00;64805.59;5060058;28;20017;-54
2022/09/11 04:58:55;;;;;;;38.40;20.77;;;;;;;-145.01;100.00;64805.59;5064543;28;20037;-54
2022/09/11 05:01:21;;;;;;;33.88;20.45;;;;;;;-145.01;100.00;64805.59;5061483;28;20486;-54
2022/09/11 05:03:47;;;;;;;44.75;23.83;;;;;;;-145.01;100.00;64805.59;5063990;28;20047;-53
2022/09/11 05:06:15;;;;;;;51.63;25.70;;;;;;;-145.01;100.00;64805.59;5058740;28;20033;-54
2022/09/11 05:08:44;;;;;;;46.72;25.23;;;;;;;-145.01;100.00;64805.59;5061856;28;20093;-55
2022/09/11 05:11:16;;;;;;;51.65;24.77;;;;;;;-145.01;100.00;64805.59;5062377;28;20024;-55
2022/09/11 05:13:41;;;;;;;55.92;25.25;;;;;;;-145.01;100.00;64805.59;5060763;28;20576;-55
2022/09/11 05:16:09;;;;;;;50.92;25.60;;;;;;;-145.01;100.00;64805.59;5062560;28;20036;-55
2022/09/11 05:18:35;;;;;;;41.63;21.25;;;;;;;-145.01;100.00;64805.59;5066261;28;20371;-54
2022/09/11 05:21:05;;;;;;;36.45;22.52;;;;;;;-145.01;100.00;64805.59;5065210;28;20410;-53
2022/09/11 05:23:31;;;;;;;45.05;23.85;;;;;;;-145.01;100.00;64805.59;5055910;28;20418;-54
2022/09/11 05:26:00;;;;;;;45.30;22.08;;;;;;;-145.01;100.00;64805.59;5055023;28;20090;-55
2022/09/11 05:28:26;;;;;;;37.33;20.45;;;;;;;-145.01;100.00;64805.59;5064358;28;20199;-54
2022/09/11 05:30:52;;;;;;;43.95;22.05;;;;;;;-145.01;100.00;64805.59;5060881;28;20056;-55
2022/09/11 05:33:18;;;;;;;30.25;19.15;;;;;;;-145.01;100.00;64805.59;5066792;28;20025;-55
2022/09/11 05:35:43;;;;;;;34.92;20.67;;;;;;;-145.01;100.00;64805.59;5065586;28;20036;-55
2022/09/11 05:38:09;;;;;;;31.75;18.83;;;;;;;-145.01;100.00;64805.59;5059040;28;20029;-54
2022/09/11 05:40:35;;;;;;;32.20;19.80;;;;;;;-145.01;100.00;64805.59;5058868;28;20036;-54
2022/09/11 05:43:01;;;;;;;32.55;19.58;;;;;;;-145.01;100.00;64805.59;5062125;28;20538;-57
2022/09/11 05:45:26;;;;;;;34.35;19.65;;;;;;;-145.01;100.00;64805.59;5066672;28;20452;-56
2022/09/11 05:47:52;;;;;;;31.25;18.75;;;;;;;-145.01;100.00;64805.59;5061549;28;20032;-55
2022/09/11 05:50:20;;;;;;;37.95;18.40;;;;;;;-145.01;100.00;64805.59;5062253;28;20040;-54
2022/09/11 05:52:46;;;;;;;32.20;19.23;;;;;;;-145.01;100.00;64805.59;5066168;28;20399;-56
2022/09/11 05:55:11;;;;;;;35.60;19.25;;;;;;;-145.01;100.00;64805.59;5064124;28;20025;-55
2022/09/11 05:57:36;;;;;;;33.88;18.08;;;;;;;-145.01;100.00;64805.59;5064274;28;20029;-56
2022/09/11 06:00:04;;;;;;;29.08;18.98;;;;;;;-145.01;100.00;64805.59;5061789;28;20027;-53
2022/09/11 06:02:29;;;;;;;36.30;20.08;;;;;;;-145.01;100.00;64805.59;5059534;28;20043;-54
2022/09/11 06:04:55;;;;;;;32.78;20.92;;;;;;;-145.01;100.00;64805.59;5060434;28;20578;-55
2022/09/11 06:07:20;;;;;;;36.83;20.55;;;;;;;-145.01;100.00;64805.59;5066316;28;20039;-55
2022/09/11 06:09:46;;;;;;;38.65;22.58;;;;;;;-145.01;100.00;64805.59;5058189;28;20044;-53
2022/09/11 06:12:11;;;;;;;40.33;24.30;;;;;;;-145.01;100.00;64805.59;5063077;28;20020;-55
2022/09/11 06:14:37;;;;;;;39.55;22.92;;;;;;;-145.01;100.00;64805.59;5060311;28;20036;-54
2022/09/11 06:17:03;;;;;;;42.28;23.88;;;;;;;-145.01;100.00;64805.59;5059969;28;20029;-54
2022/09/11 06:19:29;;;;;;;43.50;24.38;;;;;;;-145.01;100.00;64805.59;5061891;28;20035;-56
2022/09/11 06:21:55;;;;;;;41.55;23.70;;;;;;;-145.01;100.00;64805.59;5061796;28;20070;-55
2022/09/11 06:24:20;;;;;;;44.00;24.90;;;;;;;-145.01;100.00;64805.59;5060860;28;20021;-55
2022/09/11 06:26:46;;;;;;;45.85;24.98;;;;;;;-145.01;100.00;64805.59;5064415;28;20044;-55
2022/09/11 06:29:13;;;;;;;41.80;21.35;;;;;;;-145.01;100.00;64805.59;5065252;28;20028;-55
2022/09/11 06:31:40;;;;;;;38.47;22.15;;;;;;;-145.01;100.00;64805.59;5060559;28;20025;-55
2022/09/11 06:34:05;;;;;;;29.02;18.83;;;;;;;-145.01;100.00;64805.59;5062316;28;20423;-54
2022/09/11 06:36:31;;;;;;;33.22;21.20;;;;;;;-145.01;100.00;64805.59;5064805;28;20025;-54
2022/09/11 06:38:57;;;;;;;35.30;20.98;;;;;;;-145.01;100.00;64805.59;5063459;28;20025;-55
2022/09/11 06:41:23;;;;;;;40.38;22.15;;;;;;;-145.01;100.00;64805.59;5067304;28;20024;-55
2022/09/11 06:43:48;;;;;;;39.42;21.98;;;;;;;-145.01;100.00;64805.59;5062428;28;20039;-55
2022/09/11 06:46:16;;;;;;;33.95;19.25;;;;;;;-145.01;100.00;64805.59;5058782;28;20028;-55
2022/09/11 06:48:43;;;;;;;29.00;18.00;;;;;;;-145.01;100.00;64805.59;5062718;28;20471;-55
2022/09/11 06:51:12;;;;;;;26.88;16.50;;;;;;;-145.01;100.00;64805.59;5063109;28;20078;-55
2022/09/11 06:53:38;;;;;;;32.10;18.67;;;;;;;-145.01;100.00;64805.59;5057998;28;20017;-55
2022/09/11 06:56:04;;;;;;;28.88;18.27;;;;;;;-145.01;100.00;64805.59;5058580;28;20032;-56
2022/09/11 06:58:30;;;;;;;28.42;18.13;;;;;;;-145.01;100.00;64805.59;5065162;28;20032;-56
2022/09/11 07:01:05;;;;;;;31.73;19.27;;;;;;;-145.01;100.00;64805.59;5064346;28;20028;-55
2022/09/11 07:03:30;;;;;;;35.25;19.40;;;;;;;-145.01;100.00;64805.59;5062311;28;20136;-56
2022/09/11 07:05:56;;;;;;;31.17;18.95;;;;;;;-145.01;100.00;64805.59;5060599;28;20119;-55
2022/09/11 07:08:21;;;;;;;25.27;15.23;;;;;;;-145.01;100.00;64805.59;5058679;28;20399;-55
2022/09/11 07:10:46;;;;;;;31.05;18.02;;;;;;;-145.01;100.00;64805.59;5058687;28;20028;-52
2022/09/11 07:13:12;;;;;;;31.50;17.02;;;;;;;-145.01;100.00;64805.59;5061871;28;20055;-56
2022/09/11 07:15:37;;;;;;;34.65;18.33;;;;;;;-145.01;100.00;64805.59;5060458;28;20044;-55
2022/09/11 07:18:04;;;;;;;27.48;17.30;;;;;;;-145.01;100.00;64805.59;5059886;28;20021;-56
2022/09/11 07:20:30;;;;;;;28.88;17.50;;;;;;;-145.01;100.00;64805.59;5060345;28;20056;-56
2022/09/11 07:22:56;;;;;;;30.73;16.92;;;;;;;-145.01;100.00;64805.59;5061911;28;20337;-55
2022/09/11 07:25:21;;;;;;;33.30;16.55;;;;;;;-145.01;100.00;64805.59;5064366;28;20475;-56
2022/09/11 07:27:47;;;;;;;36.90;17.13;;;;;;;-145.01;100.00;64805.59;5054879;28;20043;-55
2022/09/11 07:30:12;;;;;;;27.48;16.60;;;;;;;-145.01;100.00;64805.59;5059456;28;20025;-56
2022/09/11 07:32:38;;;;;;;27.55;16.88;;;;;;;-145.01;100.00;64805.59;5057372;28;20024;-56
2022/09/11 07:35:04;;;;;;;28.00;15.15;;;;;;;-145.01;100.00;64805.59;5060355;28;20024;-55
2022/09/11 07:37:29;;;;;;;33.05;16.02;;;;;;;-145.01;100.00;64805.59;5058657;28;20036;-56
2022/09/11 07:39:55;;;;;;;33.00;18.10;;;;;;;-145.01;100.00;64805.59;5056157;28;20051;-56
2022/09/11 07:42:20;;;;;;;28.70;18.10;;;;;;;-145.01;100.00;64805.59;5056839;28;20017;-56
2022/09/11 07:44:45;;;;;;;33.00;19.17;;;;;;;-145.01;100.00;64805.59;5065557;28;20036;-55
2022/09/11 07:47:11;;;;;;;30.48;19.42;;;;;;;-145.01;100.00;64805.59;5059979;28;20025;-55
2022/09/11 07:49:36;;;;;;;35.00;19.23;;;;;;;-145.01;100.00;64805.59;5058122;28;20020;-56
2022/09/11 07:52:02;;;;;;;30.02;16.70;;;;;;;-145.01;100.00;64805.59;5061660;28;20055;-54
2022/09/11 07:54:27;;;;;;;31.00;17.73;;;;;;;-145.01;100.00;64805.59;5053129;28;20028;-56
2022/09/11 07:56:53;;;;;;;27.00;16.30;;;;;;;-145.01;100.00;64805.59;5060675;28;20410;-56
2022/09/11 07:59:18;;;;;;;31.33;17.10;;;;;;;-145.01;100.00;64805.59;5054135;28;20032;-55
2022/09/11 08:01:44;;;;;;;34.47;18.65;;;;;;;-145.01;100.00;64805.59;5056845;28;20473;-56
2022/09/11 08:04:11;;;;;;;24.50;13.27;;;;;;;-145.01;100.00;64805.59;5054730;28;20507;-57
2022/09/11 08:06:36;;;;;;;30.25;18.08;;;;;;;-145.01;100.00;64805.59;5049014;28;20079;-56
2022/09/11 08:09:10;;;;;;;30.67;17.45;;;;;;;-145.01;100.00;64805.59;5059871;28;20032;-56
2022/09/11 08:11:47;;;;;;;32.63;17.02;;;;;;;-145.01;100.00;64805.59;5057696;28;20127;-56
2022/09/11 08:14:14;;;;;;;28.67;15.73;;;;;;;-145.01;100.00;64805.59;5058440;28;20377;-56
2022/09/11 08:16:39;;;;;;;29.65;17.25;;;;;;;-145.01;100.00;64805.59;5062124;28;20119;-54
2022/09/11 08:19:05;;;;;;;32.88;15.70;;;;;;;-145.01;100.00;64805.59;5052708;28;20024;-55
2022/09/11 08:21:31;;;;;;;30.48;17.65;;;;;;;-145.01;100.00;64805.59;5055281;28;20029;-55
2022/09/11 08:23:56;;;;;;;26.30;16.15;;;;;;;-145.01;100.00;64805.59;5060398;28;20028;-55
2022/09/11 08:26:29;;;;;;;22.40;14.10;;;;;;;-145.01;100.00;64805.59;5056112;28;20028;-56
2022/09/11 08:28:55;;;;;;;29.48;16.92;;;;;;;-145.01;100.00;64805.59;5057899;28;20060;-57
2022/09/11 08:31:22;;;;;;;28.48;17.55;;;;;;;-145.01;100.00;64805.59;5058906;28;20505;-55
2022/09/11 08:33:50;;;;;;;31.00;17.75;;;;;;;-145.01;100.00;64805.59;5061443;28;20486;-56
2022/09/11 08:36:15;;;;;;;27.23;15.00;;;;;;;-145.01;100.00;64805.59;5057370;28;20625;-56
2022/09/11 08:38:42;;;;;;;29.13;16.75;;;;;;;-145.01;100.00;64805.59;5059874;28;20051;-56
2022/09/11 08:41:31;;;;;;;29.27;16.40;;;;;;;-145.01;100.00;64805.59;5063825;28;20150;-56
2022/09/11 08:44:03;;;;;;;25.77;15.60;;;;;;;-145.01;100.00;64805.59;5054853;28;20059;-56
2022/09/11 08:46:36;;;;;;;25.73;15.40;;;;;;;-145.01;100.00;64805.59;5058181;28;20491;-56
2022/09/11 08:49:08;;;;;;;28.13;15.35;;;;;;;-145.01;100.00;64805.59;5052794;28;20044;-56
2022/09/11 08:51:33;;;;;;;28.27;15.90;;;;;;;-145.01;100.00;64805.59;5056724;28;20434;-54
2022/09/11 08:54:00;;;;;;;27.35;15.57;;;;;;;-145.01;100.00;64805.59;5027395;28;20028;-56
2022/09/11 08:56:28;;;;;;;25.48;15.50;;;;;;;-145.01;100.00;64805.59;5060550;28;20105;-57
2022/09/11 08:59:08;;;;;;;27.08;16.45;;;;;;;-145.01;100.00;64805.59;5060729;28;20405;-57
2022/09/11 09:02:00;;;;;;;27.05;15.63;;;;;;;-145.01;100.00;64805.59;5061369;28;20024;-55
2022/09/11 09:04:28;;;;;;;27.98;15.15;;;;;;;-145.01;100.00;64805.59;5054631;28;20043;-56
2022/09/11 09:07:09;;;;;;;27.00;14.57;;;;;;;-145.01;100.00;64805.59;5061554;28;20111;-55
2022/09/11 09:10:06;;;;;;;24.65;14.77;;;;;;;-145.01;100.00;64805.59;5064243;28;20070;-56
2022/09/11 09:12:47;;;;;;;27.38;14.38;;;;;;;-145.01;100.00;64805.59;5093269;28;20050;-59
2022/09/11 09:15:44;;;;;;;24.10;15.60;;;;;;;-145.01;100.00;64805.59;5063125;28;20037;-56
2022/09/11 09:18:13;;;;;;;23.40;15.07;;;;;;;-145.01;100.00;64805.59;5058496;28;20051;-56
2022/09/11 09:20:44;;;;;;;25.48;15.98;;;;;;;-145.01;100.00;64805.59;5055429;28;20504;-56
2022/09/11 09:23:20;;;;;;;26.48;14.55;;;;;;;-145.01;100.00;64805.59;5061658;28;20029;-56
2022/09/11 09:25:45;;;;;;;26.95;15.88;;;;;;;-145.01;100.00;64805.59;5060001;28;20556;-57
2022/09/11 09:28:33;;;;;;;23.73;15.68;;;;;;;-145.01;100.00;64805.59;5057643;28;20135;-56
2022/09/11 09:31:06;;;;;;;32.63;15.98;;;;;;;-145.01;100.00;64805.59;5035779;28;20541;-56
2022/09/11 09:33:51;;;;;;;27.38;15.52;;;;;;;-145.01;100.00;64805.59;5060169;28;20029;-56
2022/09/11 09:36:23;;;;;;;27.50;14.40;;;;;;;-145.01;100.00;64805.59;5062117;28;20032;-55
2022/09/11 09:38:49;;;;;;;25.77;14.52;;;;;;;-145.01;100.00;64805.59;5073268;28;20028;-56
2022/09/11 09:41:39;;;;;;;23.00;14.07;;;;;;;-145.01;100.00;64805.59;5035141;28;20029;-56
2022/09/11 09:44:09;;;;;;;24.38;13.70;;;;;;;-145.01;100.00;64805.59;5052662;28;20056;-55
2022/09/11 09:46:44;;;;;;;23.90;14.57;;;;;;;-145.01;100.00;64805.59;5051861;28;20107;-56
2022/09/11 09:49:09;;;;;;;24.70;15.10;;;;;;;-145.01;100.00;64805.59;5050587;28;20115;-56
2022/09/11 09:51:36;;;;;;;30.60;18.38;;;;;;;-145.01;100.00;64805.59;5034983;28;20436;-55
2022/09/11 09:54:01;;;;;;;29.88;17.48;;;;;;;-145.01;100.00;64805.59;5051492;28;20484;-54
2022/09/11 09:56:29;;;;;;;31.40;19.77;;;;;;;-145.01;100.00;64805.59;5062573;28;20020;-55
2022/09/11 09:59:07;;;;;;;28.42;17.98;;;;;;;-145.01;100.00;64805.59;5045572;28;20040;-55
2022/09/11 10:01:49;;;;;;;30.40;18.55;;;;;;;-145.01;100.00;64805.59;5056493;28;20033;-55
2022/09/11 10:04:19;;;;;;;29.88;18.52;;;;;;;-145.01;100.00;64805.59;5054795;28;20048;-55
2022/09/11 10:06:45;;;;;;;31.58;19.13;;;;;;;-145.01;100.00;64805.59;5053530;28;20033;-56
2022/09/11 10:09:19;;;;;;;31.17;19.17;;;;;;;-145.01;100.00;64805.59;5053982;28;20033;-54
2022/09/11 10:11:45;;;;;;;34.78;21.08;;;;;;;-145.01;100.00;64805.59;5053218;28;20060;-55
2022/09/11 10:14:18;;;;;;;36.28;21.08;;;;;;;-145.01;100.00;64805.59;5054426;28;20036;-55
2022/09/11 10:16:48;;;;;;;35.28;20.75;;;;;;;-145.01;100.00;64805.59;5053539;28;20061;-55
2022/09/11 10:19:37;;;;;;;41.75;21.92;;;;;;;-145.01;100.00;64805.59;5064727;28;20108;-55
2022/09/11 10:22:29;;;;;;;35.92;21.08;;;;;;;-145.01;100.00;64805.59;5055019;28;20024;-54
2022/09/11 10:24:59;;;;;;;40.55;21.80;;;;;;;-145.01;100.00;64805.59;5048547;28;20107;-55
2022/09/11 10:27:24;;;;;;;38.92;21.70;;;;;;;-145.01;100.00;64805.59;5057011;28;20543;-55
2022/09/11 10:29:50;;;;;;;37.75;19.92;;;;;;;-145.01;100.00;64805.59;5068885;28;20082;-55
2022/09/11 10:32:16;;;;;;;39.42;23.58;;;;;;;-145.01;100.00;64805.59;5050131;28;20467;-57
2022/09/11 10:34:42;;;;;;;35.58;22.52;;;;;;;-145.01;100.00;64805.59;5064565;28;20086;-54
2022/09/11 10:37:12;;;;;;;52.92;21.67;;;;;;;-145.01;100.00;64805.59;5060457;28;20025;-56
2022/09/11 10:39:39;;;;;;;;;;;;;;;-145.01;100.00;64805.59;5050031;28;20128;-55
2022/09/11 10:42:16;;;;;;;31.65;18.65;;;;;;;-145.01;100.00;64805.59;5054581;28;20003;-56
2022/09/11 10:44:45;;;;;;;40.08;20.73;;;;;;;-145.01;100.00;64805.59;5053353;28;20394;-56
2022/09/11 10:47:19;;;;;;;39.20;20.42;;;;;;;-145.01;100.00;64805.59;5048153;28;20032;-56
2022/09/11 10:49:45;;;;;;;30.58;17.58;;;;;;;-145.01;100.00;64805.59;5052180;28;20116;-54
2022/09/11 10:52:11;;;;;;;23.65;16.00;;;;;;;-145.01;100.00;64805.59;5055733;28;20032;-57
2022/09/11 10:55:03;;;;;;;22.67;15.43;;;;;;;-145.01;100.00;64805.59;5051158;28;20025;-56
2022/09/11 10:57:34;;;;;;;26.45;15.70;;;;;;;-145.01;100.00;64805.59;5056867;28;20059;-56
2022/09/11 11:00:12;;;;;;;25.50;15.70;;;;;;;-145.01;100.00;64805.59;5056177;28;20864;-56
2022/09/11 11:02:43;;;;;;;25.90;16.00;;;;;;;-145.01;100.00;64805.59;5055447;28;20047;-57
2022/09/11 11:05:43;;;;;;;28.05;17.88;;;;;;;-145.01;100.00;64805.59;5063858;28;20411;-54